North Battleford Airport
CYQW : rendu visible

Aérodrome :











RETROUVEZ-NOUS SUR...

 
LOGIN :

S'inscrire | Disclaimer

   EN    FR    IT 

 









Légende :    VFR   VFR Marginal   IFR   IFR Intensif   IFR Très Intensif
Visi : 
Plafond : 
>= 8 km
>= 3000ft
5 à 8 km
1000 à 3000 ft
1500m à 5 km
500 à 1000 ft
800 à 1500m
200 à 500 ft
< 800m
< 200 ft
Symboles :   Orages  Brouillard  Fortes neiges  Fortes précipitations  Vent > 20 kt






- Altitude de l'aérodrome : 1799 ft
- Code IATA : YQW


CYQW - North Battleford

DERNIER METAR :
  • 202300Z AUTO 25011KT 9SM CLR M04/M09 A2987 RMK SLP156

METARs EXPIRÉS :
  • 202200Z AUTO 24013G18KT 9SM CLR M03/M09 A2987 RMK SLP154
  • 202100Z AUTO 23011G18KT 9SM CLR M03/M09 A2990 RMK SLP165

TAF TAF CYQW
Valide du 20 à 18h jusqu'au 21 à 06h UTC


201738Z 2018/2106 20005KT P6SM SKC
BECMG 2019/2021 25010KT RMK FCST BASED ON AUTO OBS. NXT FCST BY 210000Z



MET'MAP, la Météo Aéronautique d'un coup d'oeil ! - Copyright ORBIFLY Décembre 2007 - Disclaimer

ORBIFLY MET'MAP TEAM :

Programmation & Développement : Alexandra Zaïnal
Sur une idée originale de : Baudouin d'Aumeries
Assistance à la programmation : Marc-Olivier Méhu
Soutien technique & logistique : Manuel Goepfert

Contact : metmap@orbifly.com




SOURCES & CREDITS :

   NOAA       Earth
Advisory